createdAt,value
2023-05-19T00:01:41.753Z,7.37
2023-05-19T00:04:08.434Z,7.64
2023-05-19T00:06:35.773Z,7.01
2023-05-19T00:09:02.622Z,7.15
2023-05-19T00:11:29.290Z,7.09
2023-05-19T00:13:55.935Z,7.23
2023-05-19T00:16:23.540Z,7.75
2023-05-19T00:18:50.307Z,7.39
2023-05-19T00:21:16.908Z,7.95
2023-05-19T00:23:43.481Z,7.33
2023-05-19T00:26:10.272Z,7.57
2023-05-19T00:28:39.382Z,7.52
2023-05-19T00:31:07.227Z,6.99
2023-05-19T00:33:34.122Z,6.97
2023-05-19T00:36:00.756Z,7.34
2023-05-19T00:38:27.357Z,7.18
2023-05-19T00:40:54.346Z,7.43
2023-05-19T00:43:20.957Z,7.20
2023-05-19T00:45:50.401Z,7.33
2023-05-19T00:48:17.183Z,7.59
2023-05-19T00:50:43.736Z,7.52
2023-05-19T00:53:10.355Z,7.54
2023-05-19T00:55:39.311Z,7.82
2023-05-19T00:58:05.858Z,7.65
2023-05-19T01:00:33.629Z,7.24
2023-05-19T01:03:00.745Z,7.47
2023-05-19T01:05:29.722Z,7.23
2023-05-19T01:07:56.363Z,7.60
2023-05-19T01:10:22.989Z,7.04
2023-05-19T01:12:49.620Z,7.23
2023-05-19T01:15:16.255Z,7.22
2023-05-19T01:20:31.237Z,7.47
2023-05-19T01:22:58.089Z,7.43
2023-05-19T01:25:25.024Z,7.24
2023-05-19T01:27:51.996Z,7.42
2023-05-19T01:30:18.492Z,7.40
2023-05-19T01:32:45.131Z,7.25
2023-05-19T01:35:11.822Z,7.14
2023-05-19T01:37:38.462Z,7.76
2023-05-19T01:40:04.938Z,7.18
2023-05-19T01:42:31.601Z,7.62
2023-05-19T01:44:58.118Z,7.33
2023-05-19T01:47:24.771Z,8.38
2023-05-19T01:49:51.410Z,7.80
2023-05-19T01:52:17.989Z,10.23
2023-05-19T01:54:44.598Z,7.40
2023-05-19T01:57:11.235Z,7.72
2023-05-19T01:59:37.844Z,7.89
2023-05-19T02:02:04.491Z,7.87
2023-05-19T02:04:31.094Z,7.95
2023-05-19T02:06:57.800Z,7.74
2023-05-19T02:09:24.726Z,40.88
2023-05-19T02:11:51.336Z,1008.59
2023-05-19T02:14:18.041Z,18.69
2023-05-19T02:16:44.950Z,104.85
2023-05-19T02:19:11.974Z,1455.33
2023-05-19T02:21:39.529Z,1364.53
2023-05-19T02:24:06.533Z,167.32
2023-05-19T02:26:33.147Z,97.99
2023-05-19T02:28:59.780Z,60.89
2023-05-19T02:31:26.374Z,7.13
2023-05-19T02:33:53.054Z,6.88
2023-05-19T02:36:19.874Z,7.18
2023-05-19T02:38:46.391Z,7.17
2023-05-19T02:41:13.966Z,7.06
2023-05-19T02:43:40.571Z,6.82
2023-05-19T02:46:07.160Z,7.22
2023-05-19T02:48:33.894Z,7.01
2023-05-19T02:51:01.633Z,7.95
2023-05-19T02:53:28.542Z,8.43
2023-05-19T02:55:55.494Z,8.19
2023-05-19T02:58:23.937Z,326.40
2023-05-19T03:00:50.819Z,1017.02
2023-05-19T03:03:17.771Z,38.85
2023-05-19T03:05:44.333Z,12.26
2023-05-19T03:08:11.237Z,7.60
2023-05-19T03:10:40.207Z,17.08
2023-05-19T03:13:06.727Z,111.25
2023-05-19T03:15:33.470Z,480.59
2023-05-19T03:18:00.225Z,421.44
2023-05-19T03:20:27.185Z,142.32
2023-05-19T03:22:53.755Z,15.03
2023-05-19T03:25:20.457Z,9.01
2023-05-19T03:27:47.043Z,8.23
2023-05-19T03:30:13.712Z,7.35
2023-05-19T03:32:40.327Z,7.14
2023-05-19T03:35:06.956Z,8.39
2023-05-19T03:37:33.522Z,24.61
2023-05-19T03:40:00.214Z,88.92
2023-05-19T03:42:26.901Z,70.88
2023-05-19T03:44:56.383Z,89.91
2023-05-19T03:47:23.085Z,32.84
2023-05-19T03:49:49.680Z,11.02
2023-05-19T03:52:16.329Z,29.80
2023-05-19T03:54:42.939Z,10.37
2023-05-19T03:57:09.530Z,10.71
2023-05-19T03:59:36.762Z,42.40
2023-05-19T04:02:03.374Z,17.10
2023-05-19T04:04:30.039Z,67.83
2023-05-19T04:06:56.749Z,27.43
2023-05-19T04:09:23.300Z,12.51
2023-05-19T04:11:49.878Z,8.32
2023-05-19T04:14:17.460Z,7.80
2023-05-19T04:16:44.066Z,7.93
2023-05-19T04:19:10.837Z,7.98
2023-05-19T04:21:37.338Z,7.63
2023-05-19T04:24:04.239Z,8.55
2023-05-19T04:26:31.202Z,7.49
2023-05-19T04:28:57.878Z,7.93
2023-05-19T04:31:24.795Z,12.14
2023-05-19T04:33:51.486Z,20.61
2023-05-19T04:36:18.581Z,16.80
2023-05-19T04:38:45.129Z,9.58
2023-05-19T04:41:11.691Z,9.38
2023-05-19T04:43:38.287Z,10.74
2023-05-19T04:46:05.286Z,137.72
2023-05-19T04:48:31.831Z,159.37
2023-05-19T04:50:58.722Z,215.77
2023-05-19T04:53:25.774Z,282.91
2023-05-19T04:55:55.529Z,9.59
2023-05-19T04:58:22.223Z,7.75
2023-05-19T05:00:49.226Z,7.70
2023-05-19T05:03:15.932Z,7.67
2023-05-19T05:05:42.545Z,7.28
2023-05-19T05:08:09.198Z,7.51
2023-05-19T05:10:35.914Z,6.67
2023-05-19T05:13:03.177Z,7.21
2023-05-19T05:15:29.810Z,7.91
2023-05-19T05:17:56.568Z,538.90
2023-05-19T05:20:25.591Z,965.49
2023-05-19T05:22:52.293Z,7.19
2023-05-19T05:25:21.077Z,7.64
2023-05-19T05:27:47.823Z,7.41
2023-05-19T05:30:14.660Z,7.40
2023-05-19T05:35:25.344Z,100.24
2023-05-19T05:37:52.609Z,896.84
2023-05-19T05:40:21.344Z,474.80
2023-05-19T05:42:48.062Z,504.00
2023-05-19T05:45:14.685Z,861.73
2023-05-19T05:47:41.296Z,1230.59
2023-05-19T05:50:08.060Z,513.95
2023-05-19T05:52:34.735Z,1466.39
2023-05-19T05:55:01.397Z,252.47
2023-05-19T05:57:28.032Z,3774.73
2023-05-19T05:59:55.004Z,1202.32
2023-05-19T06:02:24.096Z,4144.78
2023-05-19T06:04:50.859Z,36.59
2023-05-19T06:07:18.519Z,6.83
2023-05-19T06:09:45.573Z,6.66
2023-05-19T06:12:12.413Z,6.12
2023-05-19T06:14:38.987Z,6.17
2023-05-19T06:17:05.877Z,6.03
2023-05-19T06:19:32.765Z,6.14
2023-05-19T06:21:59.331Z,5.93
2023-05-19T06:24:25.904Z,5.84
2023-05-19T06:26:52.481Z,6.18
2023-05-19T06:29:19.320Z,471.92
2023-05-19T06:31:46.245Z,1155.65
2023-05-19T06:34:13.917Z,29.27
2023-05-19T06:36:40.628Z,6.32
2023-05-19T06:39:08.228Z,5.44
2023-05-19T06:41:35.174Z,5.87
2023-05-19T06:44:01.912Z,5.80
2023-05-19T06:46:29.710Z,5.85
2023-05-19T06:48:59.506Z,5.71
2023-05-19T06:51:26.462Z,26.34
2023-05-19T06:53:54.485Z,6.72
2023-05-19T06:56:21.128Z,6.04
2023-05-19T06:58:50.825Z,6.30
2023-05-19T07:01:17.539Z,6.37
2023-05-19T07:03:46.434Z,5.65
2023-05-19T07:06:13.243Z,6.41
2023-05-19T07:08:39.792Z,6.18
2023-05-19T07:11:09.665Z,5.66
2023-05-19T07:13:39.818Z,5.63
2023-05-19T07:16:06.639Z,5.76
2023-05-19T07:18:34.004Z,6.20
2023-05-19T07:21:00.939Z,151.37
2023-05-19T07:23:27.542Z,183.67
2023-05-19T07:25:54.313Z,16.70
2023-05-19T07:28:21.170Z,10.77
2023-05-19T07:30:48.718Z,14.85
2023-05-19T07:33:15.861Z,5.70
2023-05-19T07:36:20.329Z,5.89
2023-05-19T07:38:45.002Z,16.15
2023-05-19T07:41:11.776Z,6.15
2023-05-19T07:43:38.579Z,6.19
2023-05-19T07:46:05.764Z,6.25
2023-05-19T07:48:32.388Z,6.45
2023-05-19T07:51:01.570Z,6.26
2023-05-19T07:53:28.394Z,6.29
2023-05-19T07:55:55.905Z,6.73
2023-05-19T07:58:24.585Z,6.35
2023-05-19T08:00:51.250Z,6.49
2023-05-19T08:03:19.290Z,6.25
2023-05-19T08:05:46.107Z,6.51
2023-05-19T08:08:15.017Z,48.17
2023-05-19T08:10:41.880Z,17.36
2023-05-19T08:13:08.594Z,8.35
2023-05-19T08:15:38.349Z,7.53
2023-05-19T08:18:05.249Z,7.50
2023-05-19T08:20:32.783Z,7.50
2023-05-19T08:23:00.146Z,7.87
2023-05-19T08:25:27.707Z,8.93
2023-05-19T08:27:54.285Z,9.51
2023-05-19T08:30:20.861Z,10.08
2023-05-19T08:32:47.533Z,22.24
2023-05-19T08:35:14.242Z,22.56
2023-05-19T08:37:40.808Z,20.12
2023-05-19T08:40:07.437Z,42.87
2023-05-19T08:42:34.220Z,35.23
2023-05-19T08:45:00.977Z,62.62
2023-05-19T08:47:31.725Z,136.26
2023-05-19T08:49:58.375Z,1354.98
2023-05-19T08:52:26.119Z,1183.34
2023-05-19T08:54:52.872Z,1483.99
2023-05-19T08:57:21.924Z,1257.24
2023-05-19T08:59:48.597Z,2094.25
2023-05-19T09:02:15.180Z,5214.04
2023-05-19T09:04:41.736Z,2155.96
2023-05-19T09:07:08.373Z,4304.72
2023-05-19T09:09:36.400Z,7382.48
2023-05-19T09:12:03.157Z,6311.19
2023-05-19T09:14:30.356Z,2022.18
2023-05-19T09:16:57.050Z,1897.35
2023-05-19T09:19:28.036Z,5062.37
2023-05-19T09:21:54.714Z,3882.97
2023-05-19T09:24:21.463Z,3216.98
2023-05-19T09:26:49.314Z,1790.60
2023-05-19T09:29:18.066Z,122.64
2023-05-19T09:31:44.923Z,234.10
2023-05-19T09:34:11.933Z,111.60
2023-05-19T09:36:39.021Z,266.68
2023-05-19T09:39:06.040Z,227.52
2023-05-19T09:41:32.733Z,4092.10
2023-05-19T09:43:59.463Z,11.25
2023-05-19T09:46:26.040Z,381.70
2023-05-19T09:48:52.647Z,3279.44
2023-05-19T09:51:19.446Z,1564.18
2023-05-19T09:53:46.384Z,81.31
2023-05-19T09:56:13.033Z,16.78
2023-05-19T09:58:39.940Z,3720.17
2023-05-19T10:01:07.079Z,1878.20
2023-05-19T10:03:34.024Z,1858.91
2023-05-19T10:06:02.948Z,698.35
2023-05-19T10:08:29.749Z,46.69
2023-05-19T10:10:56.689Z,204.56
2023-05-19T10:13:23.223Z,231.54
2023-05-19T10:15:58.190Z,3876.71
2023-05-19T10:18:26.323Z,1502.94
2023-05-19T10:20:53.250Z,73.12
2023-05-19T10:23:20.346Z,75.36
2023-05-19T10:25:46.941Z,65.18
2023-05-19T10:28:13.645Z,37.03
2023-05-19T10:30:40.697Z,27.42
2023-05-19T10:33:09.779Z,11.20
2023-05-19T10:35:37.038Z,9.51
2023-05-19T10:38:04.073Z,11.31
2023-05-19T10:40:32.252Z,25.83
2023-05-19T10:42:59.400Z,31.07
2023-05-19T10:45:26.610Z,38.83
2023-05-19T10:47:54.317Z,38.70
2023-05-19T10:50:21.279Z,30.19
2023-05-19T10:52:58.135Z,24.44
2023-05-19T10:55:46.401Z,34.65
2023-05-19T10:58:15.988Z,22.78
2023-05-19T11:00:42.542Z,10.93
2023-05-19T11:03:10.265Z,10.75
2023-05-19T11:05:36.822Z,10.51
2023-05-19T11:08:03.711Z,9.87
2023-05-19T11:10:30.696Z,10.10
2023-05-19T11:15:26.288Z,9.03
2023-05-19T11:17:53.999Z,9.66
2023-05-19T11:20:20.525Z,11.68
2023-05-19T11:22:47.144Z,16.02
2023-05-19T11:25:13.793Z,8.93
2023-05-19T11:27:40.963Z,8.84
2023-05-19T11:30:07.541Z,8.56
2023-05-19T11:35:05.607Z,9.67
2023-05-19T11:37:34.640Z,9.08
2023-05-19T11:40:01.876Z,8.93
2023-05-19T11:42:30.723Z,8.46
2023-05-19T11:44:59.308Z,8.67
2023-05-19T11:47:26.436Z,9.06
2023-05-19T11:49:58.732Z,9.07
2023-05-19T11:52:25.355Z,9.68
2023-05-19T11:54:59.505Z,9.21
2023-05-19T11:57:30.251Z,9.00
2023-05-19T11:59:57.415Z,8.99
2023-05-19T12:02:24.458Z,8.93
2023-05-19T12:04:53.443Z,8.70
2023-05-19T12:07:20.192Z,8.76
2023-05-19T12:09:46.735Z,8.43
2023-05-19T12:12:13.225Z,8.23
2023-05-19T12:14:48.797Z,7.85
2023-05-19T12:17:15.414Z,8.45
2023-05-19T12:19:49.126Z,7.42
2023-05-19T12:22:18.424Z,8.11
2023-05-19T12:24:45.664Z,7.78
2023-05-19T12:27:12.279Z,7.65
2023-05-19T12:29:39.991Z,7.44
2023-05-19T12:32:06.602Z,7.44
2023-05-19T12:34:44.848Z,7.63
2023-05-19T12:37:12.457Z,7.73
2023-05-19T12:39:39.377Z,7.31
2023-05-19T12:42:06.409Z,7.16
2023-05-19T12:44:33.322Z,6.68
2023-05-19T12:46:59.960Z,4.69
2023-05-19T12:49:27.445Z,4.42
2023-05-19T12:51:54.034Z,4.32
2023-05-19T12:54:20.797Z,4.62
2023-05-19T12:56:47.898Z,6.06
2023-05-19T12:59:18.858Z,927.23
2023-05-19T13:01:50.605Z,4110.90
2023-05-19T13:04:17.437Z,3076.15
2023-05-19T13:06:44.038Z,4.56
2023-05-19T13:09:10.732Z,4.58
2023-05-19T13:11:37.329Z,4.64
2023-05-19T13:14:06.267Z,4.88
2023-05-19T13:16:32.824Z,5.06
2023-05-19T13:18:59.863Z,5.17
2023-05-19T13:21:27.312Z,4.47
2023-05-19T13:23:53.919Z,242.79
2023-05-19T13:26:20.566Z,595.21
2023-05-19T13:28:49.513Z,4.79
2023-05-19T13:31:16.242Z,4.25
2023-05-19T13:33:42.944Z,1341.68
2023-05-19T13:36:10.519Z,4214.21
2023-05-19T13:38:39.226Z,39.06
2023-05-19T13:41:05.894Z,1454.56
2023-05-19T13:43:35.613Z,4146.73
2023-05-19T13:46:02.284Z,8450.01
2023-05-19T13:48:31.037Z,5418.94
2023-05-19T13:50:57.885Z,7045.76
2023-05-19T13:53:24.434Z,0.00
2023-05-19T13:55:52.100Z,0.00
2023-05-19T13:58:21.383Z,0.00
2023-05-19T14:00:48.040Z,0.00
2023-05-19T14:03:14.925Z,0.00
2023-05-19T14:05:44.030Z,0.00
2023-05-19T14:10:55.269Z,0.00
2023-05-19T14:13:32.639Z,0.00
2023-05-19T14:16:02.293Z,0.00
2023-05-19T14:18:29.125Z,0.00
2023-05-19T14:20:56.599Z,0.00
2023-05-19T14:23:23.956Z,0.00
2023-05-19T14:25:50.969Z,0.00
2023-05-19T14:28:17.619Z,0.00
2023-05-19T14:30:45.240Z,0.00
2023-05-19T14:33:12.159Z,0.00
2023-05-19T14:35:41.953Z,0.00
2023-05-19T14:38:08.525Z,0.00
2023-05-19T14:40:35.351Z,0.00
2023-05-19T14:43:02.274Z,0.00
2023-05-19T14:45:32.175Z,0.00
2023-05-19T14:47:59.604Z,0.00
2023-05-19T14:50:27.857Z,0.00
2023-05-19T14:52:56.639Z,0.00
2023-05-19T14:55:23.667Z,0.00
2023-05-19T14:57:51.271Z,0.00
2023-05-19T15:00:18.283Z,0.00
2023-05-19T15:02:48.112Z,0.00
2023-05-19T15:05:21.932Z,0.00
2023-05-19T15:07:54.809Z,0.00
2023-05-19T15:10:21.800Z,0.00
2023-05-19T15:12:48.498Z,0.00
2023-05-19T15:15:15.028Z,0.00
2023-05-19T15:17:41.628Z,0.00
2023-05-19T15:20:08.282Z,0.00
2023-05-19T15:22:35.074Z,0.00
2023-05-19T15:25:02.428Z,0.00
2023-05-19T15:27:31.416Z,0.00
2023-05-19T15:29:58.268Z,0.00
2023-05-19T15:32:25.124Z,0.00
2023-05-19T15:34:54.807Z,0.00
2023-05-19T15:37:21.670Z,0.00
2023-05-19T15:39:48.592Z,0.00
2023-05-19T15:42:15.217Z,0.00
2023-05-19T15:44:42.006Z,0.00
2023-05-19T15:47:08.909Z,0.00
2023-05-19T15:49:35.828Z,0.00
2023-05-19T15:52:02.674Z,0.00
2023-05-19T15:54:29.689Z,0.00
2023-05-19T15:56:57.715Z,0.00
2023-05-19T15:59:24.530Z,0.00
2023-05-19T16:01:52.975Z,0.00
2023-05-19T16:04:20.271Z,0.00
2023-05-19T16:06:47.065Z,0.00
2023-05-19T16:09:14.051Z,0.00
2023-05-19T16:11:40.786Z,0.00
2023-05-19T16:14:07.704Z,0.00
2023-05-19T16:16:34.558Z,0.00
2023-05-19T16:19:01.847Z,0.00
2023-05-19T16:21:28.741Z,0.00
2023-05-19T16:23:55.357Z,0.00
2023-05-19T16:26:22.651Z,0.00
2023-05-19T16:28:49.236Z,0.00
2023-05-19T16:31:17.771Z,0.00
2023-05-19T16:33:48.260Z,0.00
2023-05-19T16:36:15.099Z,0.00
2023-05-19T16:38:42.681Z,0.00
2023-05-19T16:41:13.771Z,0.00
2023-05-19T16:43:40.450Z,0.00
2023-05-19T16:46:07.164Z,0.00
2023-05-19T16:48:33.916Z,0.00
2023-05-19T16:51:00.751Z,0.00
2023-05-19T16:53:27.675Z,0.00
2023-05-19T16:55:54.427Z,0.00
2023-05-19T16:58:21.161Z,0.00
2023-05-19T17:00:48.452Z,0.00
2023-05-19T17:03:16.108Z,0.00
2023-05-19T17:05:42.981Z,0.00
2023-05-19T17:08:09.932Z,0.00
2023-05-19T17:10:36.534Z,0.00
2023-05-19T17:13:03.382Z,0.00
2023-05-19T17:15:31.767Z,0.00
2023-05-19T17:17:58.399Z,0.00
2023-05-19T17:20:25.070Z,0.00
2023-05-19T17:22:52.000Z,0.00
2023-05-19T17:25:18.515Z,0.00
2023-05-19T17:27:45.108Z,0.00
2023-05-19T17:30:11.703Z,0.00
2023-05-19T17:32:39.286Z,0.00
2023-05-19T17:35:06.290Z,0.00
2023-05-19T17:37:33.279Z,0.00
2023-05-19T17:40:03.221Z,0.00
2023-05-19T17:42:29.817Z,0.00
2023-05-19T17:44:56.445Z,0.00
2023-05-19T17:47:23.365Z,0.00
2023-05-19T17:49:50.106Z,0.00
2023-05-19T17:52:20.444Z,0.00
2023-05-19T17:54:50.128Z,0.00
2023-05-19T17:57:17.499Z,0.00
2023-05-19T17:59:44.429Z,0.00
2023-05-19T18:02:11.360Z,0.00
2023-05-19T18:04:37.974Z,0.00
2023-05-19T18:07:04.563Z,0.00
2023-05-19T18:09:31.538Z,0.00
2023-05-19T18:11:59.808Z,0.00
2023-05-19T18:14:27.887Z,0.00
2023-05-19T18:16:56.644Z,0.00
2023-05-19T18:19:24.321Z,0.00
2023-05-19T18:21:53.224Z,0.00
2023-05-19T18:24:19.790Z,0.00
2023-05-19T18:26:46.695Z,0.00
2023-05-19T18:29:13.199Z,0.00
2023-05-19T18:31:39.791Z,0.00
2023-05-19T18:34:06.560Z,0.00
2023-05-19T18:36:33.046Z,0.00
2023-05-19T18:39:00.016Z,0.00
2023-05-19T18:41:26.582Z,0.00
2023-05-19T18:43:53.130Z,0.00
2023-05-19T18:46:19.844Z,0.00
2023-05-19T18:48:46.818Z,0.00
2023-05-19T18:51:13.609Z,0.00
2023-05-19T18:53:41.001Z,0.00
2023-05-19T18:56:10.029Z,0.00
2023-05-19T18:58:36.693Z,0.00
2023-05-19T19:01:03.438Z,0.00
2023-05-19T19:03:29.982Z,0.00
2023-05-19T19:05:56.709Z,0.00
2023-05-19T19:08:23.433Z,0.00
2023-05-19T19:10:50.322Z,0.00
2023-05-19T19:13:17.588Z,0.00
2023-05-19T19:15:44.246Z,0.00
2023-05-19T19:20:41.367Z,0.00
2023-05-19T19:23:09.073Z,0.00
2023-05-19T19:25:35.938Z,0.00
2023-05-19T19:28:06.039Z,0.00
2023-05-19T19:30:33.882Z,0.00
2023-05-19T19:33:01.204Z,0.00
2023-05-19T19:35:28.580Z,0.00
2023-05-19T19:37:55.579Z,0.00
2023-05-19T19:40:22.516Z,0.00
2023-05-19T19:42:49.296Z,0.00
2023-05-19T19:45:16.094Z,0.00
2023-05-19T19:47:42.864Z,0.00
2023-05-19T19:50:10.722Z,0.00
2023-05-19T19:52:39.189Z,0.00
2023-05-19T19:55:05.953Z,0.00
2023-05-19T19:57:33.049Z,0.00
2023-05-19T19:59:59.822Z,0.00
2023-05-19T20:02:29.859Z,0.00
2023-05-19T20:04:57.840Z,0.00
2023-05-19T20:07:26.517Z,0.00
2023-05-19T20:09:53.551Z,0.00
2023-05-19T20:12:20.515Z,0.00
2023-05-19T20:14:47.130Z,0.00
2023-05-19T20:17:14.069Z,0.00
2023-05-19T20:19:41.535Z,0.00
2023-05-19T20:22:08.169Z,0.00
2023-05-19T20:24:35.453Z,0.00
2023-05-19T20:27:02.196Z,0.00
2023-05-19T20:29:29.566Z,0.00
2023-05-19T20:31:58.024Z,0.00
2023-05-19T20:34:25.691Z,0.00
2023-05-19T20:36:52.567Z,0.00
2023-05-19T20:39:20.303Z,0.00
2023-05-19T20:41:47.150Z,0.00
2023-05-19T20:44:13.847Z,0.00
2023-05-19T20:46:42.497Z,0.00
2023-05-19T20:49:09.028Z,0.00
2023-05-19T20:51:35.495Z,0.00
2023-05-19T20:54:02.205Z,0.00
2023-05-19T20:56:29.112Z,0.00
2023-05-19T20:58:55.982Z,0.00
2023-05-19T21:01:23.234Z,0.00
2023-05-19T21:03:52.117Z,0.00
2023-05-19T21:06:21.853Z,0.00
2023-05-19T21:08:49.565Z,0.00
2023-05-19T21:11:16.190Z,0.00
2023-05-19T21:13:42.891Z,0.00
2023-05-19T21:16:09.386Z,0.00
2023-05-19T21:21:04.696Z,0.00
2023-05-19T21:23:31.323Z,0.00
2023-05-19T21:25:58.070Z,0.00
2023-05-19T21:28:25.298Z,0.00
2023-05-19T21:30:54.973Z,0.00
2023-05-19T21:33:21.769Z,0.00
2023-05-19T21:35:48.492Z,0.00
2023-05-19T21:38:23.251Z,0.00
2023-05-19T21:40:51.152Z,0.00
2023-05-19T21:43:17.932Z,0.00
2023-05-19T21:45:44.547Z,0.00
2023-05-19T21:48:11.102Z,0.00
2023-05-19T21:50:40.015Z,0.00
2023-05-19T21:53:06.568Z,0.00
2023-05-19T21:55:33.443Z,0.00
2023-05-19T21:58:01.665Z,0.00
2023-05-19T22:00:29.720Z,0.00
2023-05-19T22:02:56.821Z,0.00
2023-05-19T22:05:24.679Z,0.00
2023-05-19T22:07:53.449Z,0.00
2023-05-19T22:10:20.568Z,0.00
2023-05-19T22:15:20.070Z,0.00
2023-05-19T22:17:46.947Z,0.00
2023-05-19T22:20:13.640Z,0.00
2023-05-19T22:22:40.364Z,0.00
2023-05-19T22:25:06.985Z,0.00
2023-05-19T22:27:33.638Z,0.00
2023-05-19T22:30:00.231Z,0.00
2023-05-19T22:32:26.871Z,0.00
2023-05-19T22:34:56.060Z,0.00
2023-05-19T22:37:22.732Z,0.00
2023-05-19T22:39:49.309Z,0.00
2023-05-19T22:42:15.781Z,0.00
2023-05-19T22:44:42.443Z,0.00
2023-05-19T22:47:10.488Z,0.00
2023-05-19T22:49:37.565Z,0.00
2023-05-19T22:52:04.817Z,0.00
2023-05-19T22:54:31.475Z,0.00
2023-05-19T22:56:58.150Z,0.00
2023-05-19T22:59:24.847Z,0.00
2023-05-19T23:01:51.684Z,0.00
2023-05-19T23:04:18.685Z,0.00
2023-05-19T23:06:45.196Z,0.00
2023-05-19T23:09:11.992Z,0.00
2023-05-19T23:11:38.575Z,0.00
2023-05-19T23:14:05.185Z,0.00
2023-05-19T23:16:34.843Z,0.00
2023-05-19T23:19:01.656Z,0.00
2023-05-19T23:21:28.294Z,0.00
2023-05-19T23:23:55.257Z,0.00
2023-05-19T23:26:22.790Z,0.00
2023-05-19T23:28:49.553Z,0.00
2023-05-19T23:31:16.243Z,0.00
2023-05-19T23:33:43.199Z,0.00
2023-05-19T23:36:10.035Z,0.00
2023-05-19T23:38:37.512Z,0.00
2023-05-19T23:41:04.250Z,0.00
2023-05-19T23:43:30.820Z,0.00
2023-05-19T23:45:57.401Z,0.00
2023-05-19T23:48:24.526Z,0.00
2023-05-19T23:50:51.428Z,0.00
2023-05-19T23:53:18.332Z,0.00
2023-05-19T23:55:44.986Z,0.00
2023-05-19T23:58:11.484Z,0.00
